createdAt,value
2022-10-09T00:00:00.659Z,1172.05
2022-10-09T00:02:27.445Z,1162.50
2022-10-09T00:04:53.796Z,1133.30
2022-10-09T00:07:20.104Z,1119.30
2022-10-09T00:09:46.502Z,1113.80
2022-10-09T00:12:12.754Z,1096.40
2022-10-09T00:14:39.085Z,1084.43
2022-10-09T00:17:05.459Z,1070.57
2022-10-09T00:19:31.923Z,1066.40
2022-10-09T00:21:58.279Z,1049.78
2022-10-09T00:24:24.586Z,1045.88
2022-10-09T00:26:51.067Z,1040.55
2022-10-09T00:29:17.694Z,1036.25
2022-10-09T00:31:44.238Z,1003.95
2022-10-09T00:34:10.554Z,1006.10
2022-10-09T00:36:36.950Z,998.88
2022-10-09T00:39:03.259Z,982.38
2022-10-09T00:41:29.562Z,971.25
2022-10-09T00:43:55.930Z,968.47
2022-10-09T00:46:22.515Z,954.22
2022-10-09T00:48:48.942Z,939.38
2022-10-09T00:51:15.267Z,932.83
2022-10-09T00:53:41.557Z,921.60
2022-10-09T00:56:07.910Z,916.03
2022-10-09T00:58:34.337Z,923.38
2022-10-09T01:01:00.758Z,892.55
2022-10-09T01:03:27.193Z,885.13
2022-10-09T01:05:55.361Z,877.90
2022-10-09T01:08:22.126Z,876.35
2022-10-09T01:10:48.726Z,851.17
2022-10-09T01:13:15.499Z,854.88
2022-10-09T01:15:42.197Z,846.20
2022-10-09T01:18:08.837Z,827.88
2022-10-09T01:20:35.287Z,819.90
2022-10-09T01:23:01.770Z,823.88
2022-10-09T01:25:28.067Z,802.28
2022-10-09T01:27:54.416Z,812.30
2022-10-09T01:30:20.910Z,792.30
2022-10-09T01:32:47.447Z,780.25
2022-10-09T01:35:14.189Z,791.47
2022-10-09T01:37:40.639Z,769.55
2022-10-09T01:40:06.912Z,762.03
2022-10-09T01:42:33.274Z,758.67
2022-10-09T01:44:59.843Z,746.80
2022-10-09T01:47:26.455Z,749.40
2022-10-09T01:49:52.820Z,737.70
2022-10-09T01:52:19.253Z,733.33
2022-10-09T01:54:45.598Z,718.58
2022-10-09T01:57:12.049Z,715.25
2022-10-09T01:59:38.346Z,707.08
2022-10-09T02:02:04.690Z,696.70
2022-10-09T02:04:31.387Z,686.70
2022-10-09T02:06:57.796Z,701.28
2022-10-09T02:09:24.144Z,674.75
2022-10-09T02:11:50.439Z,671.80
2022-10-09T02:14:16.760Z,673.78
2022-10-09T02:16:43.314Z,658.58
2022-10-09T02:19:09.956Z,646.80
2022-10-09T02:21:36.421Z,634.45
2022-10-09T02:24:02.811Z,642.17
2022-10-09T02:26:29.171Z,635.67
2022-10-09T02:28:55.614Z,630.25
2022-10-09T02:31:22.071Z,618.33
2022-10-09T02:33:48.441Z,618.58
2022-10-09T02:36:14.775Z,605.42
2022-10-09T02:38:41.159Z,602.33
2022-10-09T02:41:07.523Z,601.47
2022-10-09T02:43:33.788Z,594.58
2022-10-09T02:46:00.166Z,578.88
2022-10-09T02:48:27.132Z,584.42
2022-10-09T02:50:54.817Z,569.90
2022-10-09T02:53:21.298Z,568.83
2022-10-09T02:55:47.585Z,547.70
2022-10-09T02:58:13.962Z,554.25
2022-10-09T03:00:40.301Z,539.58
2022-10-09T03:03:06.898Z,538.67
2022-10-09T03:05:33.489Z,535.97
2022-10-09T03:08:00.149Z,528.25
2022-10-09T03:10:26.621Z,525.85
2022-10-09T03:12:52.992Z,521.95
2022-10-09T03:15:19.294Z,513.35
2022-10-09T03:17:45.557Z,512.28
2022-10-09T03:20:11.866Z,511.90
2022-10-09T03:22:38.175Z,499.73
2022-10-09T03:25:04.451Z,495.08
2022-10-09T03:27:30.711Z,492.05
2022-10-09T03:29:57.114Z,489.67
2022-10-09T03:32:23.495Z,477.20
2022-10-09T03:34:49.838Z,479.98
2022-10-09T03:37:16.101Z,481.60
2022-10-09T03:39:42.524Z,471.20
2022-10-09T03:42:08.847Z,464.65
2022-10-09T03:44:35.161Z,459.58
2022-10-09T03:47:01.574Z,450.95
2022-10-09T03:49:27.997Z,450.77
2022-10-09T03:51:54.248Z,451.65
2022-10-09T03:54:20.557Z,441.30
2022-10-09T03:56:46.905Z,442.08
2022-10-09T03:59:13.202Z,437.30
2022-10-09T04:01:39.515Z,434.10
2022-10-09T04:04:05.786Z,421.60
2022-10-09T04:06:32.115Z,431.88
2022-10-09T04:08:58.477Z,423.30
2022-10-09T04:11:24.792Z,412.83
2022-10-09T04:13:51.090Z,411.55
2022-10-09T04:16:17.593Z,408.33
2022-10-09T04:18:43.938Z,403.80
2022-10-09T04:21:10.249Z,405.85
2022-10-09T04:23:36.562Z,406.95
2022-10-09T04:26:02.863Z,402.92
2022-10-09T04:28:29.456Z,390.20
2022-10-09T04:30:55.815Z,387.40
2022-10-09T04:33:22.109Z,386.67
2022-10-09T04:35:48.459Z,383.00
2022-10-09T04:38:14.739Z,371.95
2022-10-09T04:40:41.074Z,365.30
2022-10-09T04:43:07.346Z,366.02
2022-10-09T04:45:33.680Z,358.77
2022-10-09T04:48:00.249Z,356.70
2022-10-09T04:50:26.683Z,349.63
2022-10-09T04:52:52.943Z,347.02
2022-10-09T04:55:19.312Z,341.58
2022-10-09T04:57:45.568Z,344.55
2022-10-09T05:00:11.849Z,335.13
2022-10-09T05:02:38.152Z,338.92
2022-10-09T05:05:04.437Z,328.48
2022-10-09T05:07:30.725Z,323.17
2022-10-09T05:09:57.009Z,324.95
2022-10-09T05:12:23.342Z,322.17
2022-10-09T05:14:49.620Z,319.52
2022-10-09T05:17:17.927Z,304.02
2022-10-09T05:19:47.099Z,306.52
2022-10-09T05:22:13.514Z,301.10
2022-10-09T05:24:39.882Z,296.70
2022-10-09T05:27:06.221Z,286.05
2022-10-09T05:29:32.743Z,288.38
2022-10-09T05:31:59.125Z,285.83
2022-10-09T05:34:25.562Z,282.70
2022-10-09T05:36:51.882Z,280.25
2022-10-09T05:39:18.361Z,267.38
2022-10-09T05:41:45.427Z,276.75
2022-10-09T05:44:11.853Z,270.17
2022-10-09T05:46:38.153Z,271.25
2022-10-09T05:49:04.435Z,259.90
2022-10-09T05:51:30.846Z,258.42
2022-10-09T05:53:59.014Z,260.83
2022-10-09T05:56:25.728Z,256.55
2022-10-09T05:58:52.012Z,253.25
2022-10-09T06:01:18.625Z,248.73
2022-10-09T06:03:45.113Z,245.25
2022-10-09T06:06:11.558Z,240.25
2022-10-09T06:08:37.853Z,246.02
2022-10-09T06:11:04.254Z,239.70
2022-10-09T06:13:30.585Z,229.65
2022-10-09T06:15:56.925Z,229.10
2022-10-09T06:18:23.240Z,221.63
2022-10-09T06:20:49.516Z,227.15
2022-10-09T06:23:15.781Z,214.07
2022-10-09T06:25:42.089Z,228.35
2022-10-09T06:28:08.541Z,231.05
2022-10-09T06:30:38.498Z,224.70
2022-10-09T06:35:32.037Z,732.78
2022-10-09T06:37:58.568Z,649.33
2022-10-09T06:40:24.915Z,525.60
2022-10-09T06:42:51.800Z,443.55
2022-10-09T06:45:18.388Z,365.17
2022-10-09T06:47:45.766Z,381.92
2022-10-09T06:50:12.080Z,332.85
2022-10-09T06:52:38.363Z,326.83
2022-10-09T06:55:04.731Z,291.48
2022-10-09T06:57:31.050Z,324.25
2022-10-09T06:59:58.162Z,288.30
2022-10-09T07:02:24.699Z,349.80
2022-10-09T07:04:51.170Z,652.15
2022-10-09T07:07:17.923Z,592.50
2022-10-09T07:09:44.566Z,442.73
2022-10-09T07:12:10.891Z,434.08
2022-10-09T07:14:37.204Z,412.80
2022-10-09T07:17:03.703Z,401.70
2022-10-09T07:19:30.070Z,361.80
2022-10-09T07:21:56.395Z,362.30
2022-10-09T07:24:22.711Z,406.10
2022-10-09T07:26:49.268Z,439.48
2022-10-09T07:29:15.628Z,468.15
2022-10-09T07:31:42.221Z,461.27
2022-10-09T07:34:08.684Z,617.60
2022-10-09T07:36:35.078Z,822.30
2022-10-09T07:39:01.413Z,689.45
2022-10-09T07:41:27.707Z,608.35
2022-10-09T07:43:53.975Z,596.13
2022-10-09T07:46:20.658Z,578.58
2022-10-09T07:48:47.044Z,575.75
2022-10-09T07:51:13.670Z,557.83
2022-10-09T07:53:40.438Z,543.88
2022-10-09T07:56:07.051Z,541.17
2022-10-09T07:58:33.650Z,538.65
2022-10-09T08:00:59.988Z,523.75
2022-10-09T08:03:26.536Z,544.92
2022-10-09T08:05:53.042Z,641.45
2022-10-09T08:08:19.615Z,593.47
2022-10-09T08:10:46.279Z,578.33
2022-10-09T08:13:12.580Z,571.22
2022-10-09T08:15:38.920Z,564.10
2022-10-09T08:18:05.380Z,554.35
2022-10-09T08:20:31.662Z,544.67
2022-10-09T08:22:58.032Z,543.10
2022-10-09T08:25:24.688Z,534.53
2022-10-09T08:27:51.207Z,530.35
2022-10-09T08:30:17.501Z,524.63
2022-10-09T08:32:45.902Z,512.30
2022-10-09T08:35:12.758Z,508.58
2022-10-09T08:37:39.106Z,499.48
2022-10-09T08:40:05.827Z,506.52
2022-10-09T08:42:32.203Z,633.10
2022-10-09T08:44:58.596Z,586.35
2022-10-09T08:47:24.977Z,565.72
2022-10-09T08:49:51.421Z,552.88
2022-10-09T08:52:17.790Z,544.65
2022-10-09T08:54:44.266Z,525.55
2022-10-09T08:57:10.586Z,524.78
2022-10-09T08:59:36.895Z,515.30
2022-10-09T09:02:04.519Z,515.33
2022-10-09T09:04:30.933Z,506.50
2022-10-09T09:06:58.624Z,502.55
2022-10-09T09:09:25.185Z,476.17
2022-10-09T09:11:51.560Z,455.27
2022-10-09T09:14:17.977Z,415.40
2022-10-09T09:16:44.324Z,383.73
2022-10-09T09:19:10.645Z,364.08
2022-10-09T09:21:37.138Z,362.33
2022-10-09T09:24:03.832Z,361.65
2022-10-09T09:26:30.283Z,349.90
2022-10-09T09:28:56.860Z,348.73
2022-10-09T09:31:23.290Z,340.60
2022-10-09T09:33:50.341Z,338.65
2022-10-09T09:36:16.622Z,409.27
2022-10-09T09:39:12.606Z,442.70
2022-10-09T09:41:29.299Z,464.52
2022-10-09T09:43:55.849Z,457.85
2022-10-09T09:46:22.387Z,442.40
2022-10-09T09:48:49.050Z,457.15
2022-10-09T09:51:27.857Z,486.98
2022-10-09T09:53:55.010Z,471.05
2022-10-09T09:56:21.826Z,440.95
2022-10-09T09:58:48.102Z,410.90
2022-10-09T10:01:14.519Z,392.05
2022-10-09T10:03:40.893Z,372.90
2022-10-09T10:06:07.160Z,362.30
2022-10-09T10:08:33.537Z,352.48
2022-10-09T10:10:59.809Z,340.25
2022-10-09T10:13:26.176Z,340.13
2022-10-09T10:15:52.590Z,330.52
2022-10-09T10:18:18.947Z,327.80
2022-10-09T10:20:45.505Z,325.20
2022-10-09T10:23:11.785Z,322.92
2022-10-09T10:25:38.095Z,319.50
2022-10-09T10:28:04.800Z,319.60
2022-10-09T10:30:31.215Z,318.98
2022-10-09T10:32:57.520Z,307.77
2022-10-09T10:35:23.905Z,310.58
2022-10-09T10:37:50.456Z,306.23
2022-10-09T10:40:17.034Z,301.27
2022-10-09T10:42:43.517Z,298.88
2022-10-09T10:45:09.891Z,290.92
2022-10-09T10:47:36.124Z,289.75
2022-10-09T10:50:02.522Z,295.05
2022-10-09T10:52:28.858Z,282.52
2022-10-09T10:54:55.248Z,278.45
2022-10-09T10:57:21.726Z,281.73
2022-10-09T10:59:48.026Z,275.05
2022-10-09T11:02:14.544Z,278.00
2022-10-09T11:04:40.866Z,268.58
2022-10-09T11:07:07.176Z,273.30
2022-10-09T11:09:33.455Z,263.83
2022-10-09T11:12:00.110Z,264.33
2022-10-09T11:14:26.427Z,265.95
2022-10-09T11:16:52.697Z,254.68
2022-10-09T11:19:19.122Z,252.15
2022-10-09T11:21:45.445Z,249.38
2022-10-09T11:24:11.759Z,252.02
2022-10-09T11:26:38.093Z,249.60
2022-10-09T11:29:04.493Z,244.20
2022-10-09T11:31:31.008Z,245.60
2022-10-09T11:33:57.340Z,244.30
2022-10-09T11:36:23.651Z,237.85
2022-10-09T11:38:49.938Z,243.35
2022-10-09T11:41:16.222Z,233.88
2022-10-09T11:43:42.553Z,228.38
2022-10-09T11:46:09.066Z,231.02
2022-10-09T11:48:36.281Z,226.23
2022-10-09T11:51:02.609Z,221.50
2022-10-09T11:53:28.860Z,220.85
2022-10-09T11:55:55.322Z,220.77
2022-10-09T11:58:22.819Z,216.77
2022-10-09T12:00:49.301Z,217.82
2022-10-09T12:03:15.752Z,210.43
2022-10-09T12:05:42.145Z,213.35
2022-10-09T12:08:08.508Z,209.52
2022-10-09T12:10:34.795Z,209.65
2022-10-09T12:13:01.372Z,201.85
2022-10-09T12:15:27.696Z,204.75
2022-10-09T12:17:54.108Z,202.52
2022-10-09T12:20:20.342Z,200.88
2022-10-09T12:23:01.482Z,196.40
2022-10-09T12:25:33.094Z,195.77
2022-10-09T12:27:59.455Z,194.02
2022-10-09T12:30:25.719Z,190.88
2022-10-09T12:32:53.114Z,191.65
2022-10-09T12:35:19.735Z,192.40
2022-10-09T12:37:46.041Z,184.98
2022-10-09T12:40:12.383Z,188.25
2022-10-09T12:42:38.699Z,183.45
2022-10-09T12:45:05.111Z,182.73
2022-10-09T12:47:31.452Z,179.60
2022-10-09T12:49:57.802Z,176.38
2022-10-09T12:52:24.070Z,175.35
2022-10-09T12:54:50.382Z,176.18
2022-10-09T12:57:17.228Z,174.27
2022-10-09T12:59:43.522Z,173.30
2022-10-09T13:02:09.942Z,164.48
2022-10-09T13:04:36.302Z,168.68
2022-10-09T13:07:02.599Z,164.07
2022-10-09T13:09:28.927Z,160.90
2022-10-09T13:11:55.483Z,164.10
2022-10-09T13:14:21.842Z,161.80
2022-10-09T13:16:48.136Z,157.18
2022-10-09T13:19:14.463Z,156.13
2022-10-09T13:21:40.740Z,152.35
2022-10-09T13:24:07.040Z,152.05
2022-10-09T13:26:33.339Z,150.45
2022-10-09T13:28:59.614Z,149.43
2022-10-09T13:31:25.919Z,149.65
2022-10-09T13:33:52.166Z,147.85
2022-10-09T13:36:18.487Z,143.73
2022-10-09T13:38:45.034Z,141.88
2022-10-09T13:41:11.362Z,141.30
2022-10-09T13:43:37.685Z,140.55
2022-10-09T13:46:04.014Z,139.80
2022-10-09T13:48:30.401Z,139.45
2022-10-09T13:50:56.687Z,137.48
2022-10-09T13:53:24.061Z,137.43
2022-10-09T13:55:50.305Z,132.98
2022-10-09T13:58:16.577Z,132.73
2022-10-09T14:00:43.034Z,130.20
2022-10-09T14:03:09.562Z,130.48
2022-10-09T14:05:36.130Z,128.68
2022-10-09T14:08:02.467Z,126.88
2022-10-09T14:10:28.890Z,125.47
2022-10-09T14:12:55.190Z,125.07
2022-10-09T14:15:21.648Z,28.63
2022-10-09T14:17:48.379Z,55.83
2022-10-09T14:20:14.909Z,75.88
2022-10-09T14:22:41.192Z,98.03
2022-10-09T14:25:07.519Z,70.53
2022-10-09T14:30:03.563Z,65.18
2022-10-09T14:32:29.908Z,64.53
2022-10-09T14:34:56.259Z,59.80
2022-10-09T14:37:40.451Z,60.22
2022-10-09T14:40:07.829Z,59.13
2022-10-09T14:42:34.162Z,60.03
2022-10-09T14:45:00.745Z,56.75
2022-10-09T14:47:27.005Z,58.65
2022-10-09T14:49:57.518Z,57.70
2022-10-09T14:52:25.160Z,55.75
2022-10-09T14:54:52.835Z,56.22
2022-10-09T14:57:19.901Z,54.25
2022-10-09T14:59:46.196Z,54.28
2022-10-09T15:02:12.540Z,54.22
2022-10-09T15:04:38.884Z,54.15
2022-10-09T15:07:05.274Z,53.05
2022-10-09T15:09:31.782Z,54.13
2022-10-09T15:11:58.259Z,51.65
2022-10-09T15:14:24.659Z,50.92
2022-10-09T15:16:50.965Z,53.47
2022-10-09T15:19:17.277Z,51.90
2022-10-09T15:21:43.542Z,51.85
2022-10-09T15:24:09.885Z,50.75
2022-10-09T15:26:36.134Z,50.45
2022-10-09T15:29:02.475Z,51.45
2022-10-09T15:31:28.821Z,51.72
2022-10-09T15:33:55.173Z,49.97
2022-10-09T15:36:21.773Z,49.67
2022-10-09T15:38:48.165Z,47.65
2022-10-09T15:41:14.413Z,50.88
2022-10-09T15:43:41.277Z,46.90
2022-10-09T15:46:07.737Z,47.53
2022-10-09T15:48:34.182Z,47.55
2022-10-09T15:51:00.620Z,47.17
2022-10-09T15:53:26.872Z,46.13
2022-10-09T15:55:53.150Z,45.50
2022-10-09T15:58:19.530Z,46.13
2022-10-09T16:00:46.149Z,45.28
2022-10-09T16:03:12.421Z,44.63
2022-10-09T16:05:39.550Z,46.10
2022-10-09T16:08:05.914Z,46.25
2022-10-09T16:10:32.378Z,43.40
2022-10-09T16:12:58.689Z,44.45
2022-10-09T16:15:25.229Z,43.45
2022-10-09T16:17:51.771Z,43.08
2022-10-09T16:20:18.029Z,41.75
2022-10-09T16:22:44.406Z,42.05
2022-10-09T16:25:10.709Z,40.15
2022-10-09T16:27:37.356Z,42.60
2022-10-09T16:30:03.710Z,40.17
2022-10-09T16:32:30.014Z,40.10
2022-10-09T16:34:56.315Z,39.25
2022-10-09T16:37:22.645Z,39.33
2022-10-09T16:39:48.967Z,38.45
2022-10-09T16:42:15.551Z,39.72
2022-10-09T16:44:41.817Z,38.70
2022-10-09T16:47:08.152Z,39.28
2022-10-09T16:49:34.528Z,38.63
2022-10-09T16:52:00.855Z,38.35
2022-10-09T16:54:27.330Z,37.10
2022-10-09T16:56:53.673Z,37.17
2022-10-09T16:59:19.985Z,35.92
2022-10-09T17:01:46.339Z,37.70
2022-10-09T17:04:12.706Z,35.88
2022-10-09T17:06:39.087Z,34.55
2022-10-09T17:09:08.899Z,35.38
2022-10-09T17:11:37.593Z,34.53
2022-10-09T17:14:03.852Z,34.50
2022-10-09T17:16:30.149Z,34.55
2022-10-09T17:18:56.534Z,32.72
2022-10-09T17:21:23.038Z,33.00
2022-10-09T17:23:49.343Z,34.25
2022-10-09T17:26:15.815Z,33.10
2022-10-09T17:28:42.337Z,32.15
2022-10-09T17:31:08.786Z,29.17
2022-10-09T17:33:35.143Z,31.08
2022-10-09T17:36:01.453Z,30.98
2022-10-09T17:38:27.816Z,30.35
2022-10-09T17:40:54.091Z,29.23
2022-10-09T17:43:20.677Z,30.75
2022-10-09T17:45:47.055Z,29.85
2022-10-09T17:48:13.371Z,30.88
2022-10-09T17:50:39.762Z,29.08
2022-10-09T17:53:06.025Z,28.67
2022-10-09T17:55:32.365Z,29.75
2022-10-09T17:57:58.694Z,28.10
2022-10-09T18:00:25.049Z,28.75
2022-10-09T18:02:51.402Z,27.70
2022-10-09T18:05:17.808Z,27.40
2022-10-09T18:07:44.163Z,26.58
2022-10-09T18:10:10.451Z,26.83
2022-10-09T18:12:36.853Z,26.25
2022-10-09T18:15:03.110Z,26.63
2022-10-09T18:17:29.406Z,26.05
2022-10-09T18:19:55.905Z,25.23
2022-10-09T18:22:22.236Z,25.08
2022-10-09T18:24:48.660Z,25.08
2022-10-09T18:27:15.280Z,24.85
2022-10-09T18:29:41.533Z,23.73
2022-10-09T18:32:07.773Z,24.65
2022-10-09T18:34:38.947Z,24.05
2022-10-09T18:37:06.110Z,22.73
2022-10-09T18:39:33.498Z,24.17
2022-10-09T18:41:59.864Z,23.45
2022-10-09T18:44:26.108Z,22.85
2022-10-09T18:46:52.373Z,23.50
2022-10-09T18:49:18.731Z,22.85
2022-10-09T18:51:45.017Z,22.27
2022-10-09T18:54:15.776Z,22.50
2022-10-09T18:56:44.282Z,22.73
2022-10-09T18:59:13.044Z,21.85
2022-10-09T19:01:39.510Z,22.33
2022-10-09T19:04:05.907Z,22.30
2022-10-09T19:06:32.191Z,21.33
2022-10-09T19:08:58.724Z,21.23
2022-10-09T19:11:25.046Z,20.08
2022-10-09T19:13:52.181Z,20.58
2022-10-09T19:16:18.547Z,20.38
2022-10-09T19:18:44.906Z,19.88
2022-10-09T19:21:11.272Z,21.10
2022-10-09T19:23:37.641Z,19.85
2022-10-09T19:26:04.015Z,20.35
2022-10-09T19:28:30.636Z,19.38
2022-10-09T19:30:57.087Z,18.85
2022-10-09T19:33:23.364Z,18.63
2022-10-09T19:35:49.642Z,18.55
2022-10-09T19:38:15.984Z,19.50
2022-10-09T19:40:42.350Z,19.40
2022-10-09T19:43:08.681Z,19.70
2022-10-09T19:45:35.297Z,18.48
2022-10-09T19:48:01.615Z,17.50
2022-10-09T19:50:27.940Z,18.73
2022-10-09T19:52:54.342Z,17.95
2022-10-09T19:55:20.659Z,17.30
2022-10-09T19:57:47.273Z,17.52
2022-10-09T20:00:13.905Z,17.10
2022-10-09T20:02:40.419Z,17.55
2022-10-09T20:05:06.697Z,17.23
2022-10-09T20:07:33.069Z,16.17
2022-10-09T20:09:59.359Z,16.95
2022-10-09T20:12:26.183Z,16.23
2022-10-09T20:14:52.509Z,16.67
2022-10-09T20:17:18.842Z,16.67
2022-10-09T20:19:45.832Z,15.45
2022-10-09T20:22:12.209Z,15.85
2022-10-09T20:24:38.495Z,16.77
2022-10-09T20:27:04.771Z,17.20
2022-10-09T20:29:31.229Z,16.10
2022-10-09T20:31:59.201Z,15.38
2022-10-09T20:34:25.630Z,15.63
2022-10-09T20:36:52.242Z,15.80
2022-10-09T20:39:18.568Z,15.55
2022-10-09T20:41:44.886Z,15.35
2022-10-09T20:44:11.593Z,14.43
2022-10-09T20:46:38.010Z,14.02
2022-10-09T20:49:04.360Z,13.52
2022-10-09T20:51:30.666Z,14.93
2022-10-09T20:53:57.425Z,13.35
2022-10-09T20:56:23.758Z,13.50
2022-10-09T20:58:50.055Z,13.45
2022-10-09T21:01:16.436Z,13.27
2022-10-09T21:03:42.771Z,13.43
2022-10-09T21:06:09.181Z,13.70
2022-10-09T21:08:35.469Z,13.43
2022-10-09T21:11:01.770Z,12.95
2022-10-09T21:13:28.048Z,13.10
2022-10-09T21:15:55.312Z,13.10
2022-10-09T21:18:21.636Z,12.50
2022-10-09T21:20:47.985Z,12.30
2022-10-09T21:23:14.382Z,12.00
2022-10-09T21:25:40.690Z,12.43
2022-10-09T21:28:07.197Z,12.68
2022-10-09T21:30:36.785Z,11.90
2022-10-09T21:33:05.409Z,11.85
2022-10-09T21:35:31.679Z,13.57
2022-10-09T21:37:58.457Z,11.35
2022-10-09T21:40:24.760Z,12.05
2022-10-09T21:42:51.347Z,10.95
2022-10-09T21:45:17.764Z,10.45
2022-10-09T21:47:44.104Z,10.60
2022-10-09T21:50:10.558Z,11.20
2022-10-09T21:52:36.990Z,11.68
2022-10-09T21:55:03.287Z,12.80
2022-10-09T21:57:29.533Z,10.63
2022-10-09T21:59:55.986Z,11.20
2022-10-09T22:02:22.415Z,11.07
2022-10-09T22:04:48.761Z,13.00
2022-10-09T22:07:15.031Z,10.55
2022-10-09T22:09:41.403Z,10.43
2022-10-09T22:12:07.981Z,9.48
2022-10-09T22:14:34.331Z,11.27
2022-10-09T22:17:00.649Z,10.38
2022-10-09T22:19:27.284Z,9.65
2022-10-09T22:21:53.572Z,10.63
2022-10-09T22:24:19.858Z,10.10
2022-10-09T22:26:46.101Z,10.18
2022-10-09T22:29:12.372Z,9.80
2022-10-09T22:31:38.684Z,12.00
2022-10-09T22:34:05.064Z,10.07
2022-10-09T22:36:31.341Z,8.70
2022-10-09T22:38:57.618Z,9.80
2022-10-09T22:41:23.900Z,9.15
2022-10-09T22:43:50.402Z,8.95
2022-10-09T22:46:16.924Z,8.80
2022-10-09T22:48:43.216Z,11.05
2022-10-09T22:51:09.494Z,9.13
2022-10-09T22:53:35.787Z,10.25
2022-10-09T22:56:02.085Z,8.90
2022-10-09T22:58:28.401Z,9.18
2022-10-09T23:00:54.904Z,8.20
2022-10-09T23:03:21.743Z,8.60
2022-10-09T23:05:48.048Z,9.65
2022-10-09T23:08:14.383Z,9.13
2022-10-09T23:10:40.747Z,8.65
2022-10-09T23:13:07.147Z,9.10
2022-10-09T23:15:33.434Z,8.90
2022-10-09T23:17:59.750Z,7.78
2022-10-09T23:20:26.045Z,11.07
2022-10-09T23:22:52.836Z,8.73
2022-10-09T23:25:19.550Z,7.85
2022-10-09T23:27:45.882Z,8.02
2022-10-09T23:30:12.198Z,9.82
2022-10-09T23:32:38.544Z,9.30
2022-10-09T23:35:05.022Z,8.63
2022-10-09T23:37:31.321Z,7.57
2022-10-09T23:39:57.791Z,8.57
2022-10-09T23:42:24.149Z,11.30
2022-10-09T23:44:50.421Z,7.47
2022-10-09T23:47:16.734Z,7.65
2022-10-09T23:49:43.044Z,8.05
2022-10-09T23:52:09.335Z,8.25
2022-10-09T23:54:35.638Z,8.73
2022-10-09T23:57:01.977Z,7.13
2022-10-09T23:59:28.248Z,9.82
